sensor_id;sensor_type;location;lat;lon;timestamp;P1;durP1;ratioP1;P2;durP2;ratioP2
11173;SDS011;5643;50.856;12.088;2023-03-01T00:01:33;24.83;;;18.67;;
11173;SDS011;5643;50.856;12.088;2023-03-01T00:04:00;21.97;;;18.00;;
11173;SDS011;5643;50.856;12.088;2023-03-01T00:06:27;23.53;;;18.60;;
11173;SDS011;5643;50.856;12.088;2023-03-01T00:08:55;20.83;;;17.87;;
11173;SDS011;5643;50.856;12.088;2023-03-01T00:11:22;19.77;;;17.53;;
11173;SDS011;5643;50.856;12.088;2023-03-01T00:13:51;21.17;;;18.07;;
11173;SDS011;5643;50.856;12.088;2023-03-01T00:16:20;19.20;;;17.17;;
11173;SDS011;5643;50.856;12.088;2023-03-01T00:18:48;20.47;;;16.47;;
11173;SDS011;5643;50.856;12.088;2023-03-01T00:21:16;18.33;;;16.37;;
11173;SDS011;5643;50.856;12.088;2023-03-01T00:23:46;17.00;;;15.30;;
11173;SDS011;5643;50.856;12.088;2023-03-01T00:26:14;15.93;;;14.10;;
11173;SDS011;5643;50.856;12.088;2023-03-01T00:28:42;15.93;;;14.23;;
11173;SDS011;5643;50.856;12.088;2023-03-01T00:31:09;15.50;;;13.83;;
11173;SDS011;5643;50.856;12.088;2023-03-01T00:33:38;14.97;;;13.37;;
11173;SDS011;5643;50.856;12.088;2023-03-01T00:36:06;15.40;;;13.47;;
11173;SDS011;5643;50.856;12.088;2023-03-01T00:38:34;15.63;;;13.93;;
11173;SDS011;5643;50.856;12.088;2023-03-01T00:41:05;14.80;;;13.23;;
11173;SDS011;5643;50.856;12.088;2023-03-01T00:43:32;14.70;;;12.80;;
11173;SDS011;5643;50.856;12.088;2023-03-01T00:46:02;14.50;;;12.90;;
11173;SDS011;5643;50.856;12.088;2023-03-01T00:48:30;15.30;;;13.73;;
11173;SDS011;5643;50.856;12.088;2023-03-01T00:50:58;15.47;;;13.80;;
11173;SDS011;5643;50.856;12.088;2023-03-01T00:53:30;15.03;;;13.20;;
11173;SDS011;5643;50.856;12.088;2023-03-01T00:55:58;14.63;;;13.13;;
11173;SDS011;5643;50.856;12.088;2023-03-01T00:58:25;16.10;;;13.30;;
11173;SDS011;5643;50.856;12.088;2023-03-01T05:04:36;16.17;;;13.93;;
11173;SDS011;5643;50.856;12.088;2023-03-01T05:07:03;16.87;;;14.43;;
11173;SDS011;5643;50.856;12.088;2023-03-01T05:09:31;16.93;;;14.20;;
11173;SDS011;5643;50.856;12.088;2023-03-01T05:11:59;16.17;;;13.90;;
11173;SDS011;5643;50.856;12.088;2023-03-01T05:14:26;14.63;;;13.00;;
11173;SDS011;5643;50.856;12.088;2023-03-01T05:16:54;16.67;;;13.93;;
11173;SDS011;5643;50.856;12.088;2023-03-01T05:19:29;15.13;;;13.10;;
11173;SDS011;5643;50.856;12.088;2023-03-01T05:21:58;15.27;;;13.67;;
11173;SDS011;5643;50.856;12.088;2023-03-01T05:24:30;15.20;;;13.40;;
11173;SDS011;5643;50.856;12.088;2023-03-01T05:26:57;15.10;;;13.50;;
11173;SDS011;5643;50.856;12.088;2023-03-01T05:29:25;14.47;;;12.60;;
11173;SDS011;5643;50.856;12.088;2023-03-01T05:31:52;15.80;;;13.47;;
11173;SDS011;5643;50.856;12.088;2023-03-01T05:34:22;14.67;;;13.03;;
11173;SDS011;5643;50.856;12.088;2023-03-01T05:36:52;15.80;;;13.20;;
11173;SDS011;5643;50.856;12.088;2023-03-01T05:39:21;15.50;;;13.23;;
11173;SDS011;5643;50.856;12.088;2023-03-01T05:41:51;15.13;;;12.53;;
11173;SDS011;5643;50.856;12.088;2023-03-01T05:44:19;14.87;;;12.73;;
11173;SDS011;5643;50.856;12.088;2023-03-01T05:46:46;15.00;;;12.93;;
11173;SDS011;5643;50.856;12.088;2023-03-01T05:49:14;17.13;;;14.77;;
11173;SDS011;5643;50.856;12.088;2023-03-01T05:51:41;16.77;;;13.80;;
11173;SDS011;5643;50.856;12.088;2023-03-01T05:54:09;15.20;;;13.30;;
11173;SDS011;5643;50.856;12.088;2023-03-01T05:56:38;17.30;;;14.73;;
11173;SDS011;5643;50.856;12.088;2023-03-01T05:59:05;17.33;;;14.27;;
11173;SDS011;5643;50.856;12.088;2023-03-01T06:01:33;14.73;;;13.20;;
11173;SDS011;5643;50.856;12.088;2023-03-01T06:04:00;15.77;;;13.33;;
11173;SDS011;5643;50.856;12.088;2023-03-01T06:06:28;15.17;;;13.57;;
11173;SDS011;5643;50.856;12.088;2023-03-01T06:08:55;15.53;;;13.23;;
11173;SDS011;5643;50.856;12.088;2023-03-01T06:11:23;15.10;;;13.00;;
11173;SDS011;5643;50.856;12.088;2023-03-01T06:13:51;15.67;;;13.97;;
11173;SDS011;5643;50.856;12.088;2023-03-01T06:16:18;16.30;;;13.60;;
11173;SDS011;5643;50.856;12.088;2023-03-01T06:18:46;16.80;;;13.40;;
11173;SDS011;5643;50.856;12.088;2023-03-01T06:21:13;15.93;;;13.70;;
11173;SDS011;5643;50.856;12.088;2023-03-01T06:23:41;16.70;;;13.80;;
11173;SDS011;5643;50.856;12.088;2023-03-01T06:26:09;16.97;;;14.13;;
11173;SDS011;5643;50.856;12.088;2023-03-01T06:28:36;15.93;;;14.10;;
11173;SDS011;5643;50.856;12.088;2023-03-01T06:31:05;15.93;;;14.23;;
11173;SDS011;5643;50.856;12.088;2023-03-01T06:33:34;14.93;;;13.27;;
11173;SDS011;5643;50.856;12.088;2023-03-01T06:36:03;16.90;;;13.57;;
11173;SDS011;5643;50.856;12.088;2023-03-01T06:38:31;15.97;;;14.20;;
11173;SDS011;5643;50.856;12.088;2023-03-01T06:40:58;16.47;;;13.20;;
11173;SDS011;5643;50.856;12.088;2023-03-01T06:43:27;15.70;;;13.83;;
11173;SDS011;5643;50.856;12.088;2023-03-01T06:45:54;16.67;;;14.87;;
11173;SDS011;5643;50.856;12.088;2023-03-01T06:48:22;16.80;;;14.43;;
11173;SDS011;5643;50.856;12.088;2023-03-01T06:50:50;18.10;;;14.70;;
11173;SDS011;5643;50.856;12.088;2023-03-01T06:53:17;16.77;;;14.93;;
11173;SDS011;5643;50.856;12.088;2023-03-01T06:55:44;19.57;;;15.97;;
11173;SDS011;5643;50.856;12.088;2023-03-01T06:58:12;17.93;;;15.40;;
11173;SDS011;5643;50.856;12.088;2023-03-01T07:00:39;18.80;;;15.07;;
11173;SDS011;5643;50.856;12.088;2023-03-01T07:03:08;19.10;;;15.80;;
11173;SDS011;5643;50.856;12.088;2023-03-01T07:05:37;19.00;;;16.83;;
11173;SDS011;5643;50.856;12.088;2023-03-01T07:08:04;17.93;;;15.00;;
11173;SDS011;5643;50.856;12.088;2023-03-01T08:08:37;23.97;;;20.73;;
11173;SDS011;5643;50.856;12.088;2023-03-01T08:11:05;21.63;;;19.30;;
11173;SDS011;5643;50.856;12.088;2023-03-01T08:13:33;20.50;;;18.30;;
11173;SDS011;5643;50.856;12.088;2023-03-01T08:16:01;23.20;;;20.30;;
11173;SDS011;5643;50.856;12.088;2023-03-01T08:18:29;22.63;;;20.27;;
11173;SDS011;5643;50.856;12.088;2023-03-01T08:21:01;24.07;;;20.83;;
11173;SDS011;5643;50.856;12.088;2023-03-01T08:23:28;22.67;;;20.20;;
11173;SDS011;5643;50.856;12.088;2023-03-01T08:26:03;22.33;;;19.70;;
11173;SDS011;5643;50.856;12.088;2023-03-01T08:28:31;27.13;;;22.83;;
11173;SDS011;5643;50.856;12.088;2023-03-01T08:30:59;27.57;;;24.57;;
11173;SDS011;5643;50.856;12.088;2023-03-01T08:33:26;26.53;;;23.37;;
11173;SDS011;5643;50.856;12.088;2023-03-01T08:36:01;28.20;;;24.43;;
11173;SDS011;5643;50.856;12.088;2023-03-01T08:38:28;29.27;;;23.80;;
11173;SDS011;5643;50.856;12.088;2023-03-01T08:40:59;28.50;;;25.23;;
11173;SDS011;5643;50.856;12.088;2023-03-01T08:43:31;28.37;;;25.30;;
11173;SDS011;5643;50.856;12.088;2023-03-01T08:45:58;26.63;;;23.80;;
11173;SDS011;5643;50.856;12.088;2023-03-01T08:48:27;26.13;;;23.20;;
11173;SDS011;5643;50.856;12.088;2023-03-01T08:50:54;28.17;;;25.07;;
11173;SDS011;5643;50.856;12.088;2023-03-01T08:53:21;28.33;;;24.07;;
11173;SDS011;5643;50.856;12.088;2023-03-01T08:55:49;25.47;;;22.10;;
11173;SDS011;5643;50.856;12.088;2023-03-01T08:58:16;26.30;;;23.10;;
11173;SDS011;5643;50.856;12.088;2023-03-01T09:00:45;24.93;;;22.33;;
11173;SDS011;5643;50.856;12.088;2023-03-01T09:03:13;25.50;;;22.77;;
11173;SDS011;5643;50.856;12.088;2023-03-01T09:05:44;26.33;;;22.87;;
11173;SDS011;5643;50.856;12.088;2023-03-01T09:08:11;26.60;;;23.80;;
11173;SDS011;5643;50.856;12.088;2023-03-01T09:10:39;25.97;;;22.37;;
11173;SDS011;5643;50.856;12.088;2023-03-01T09:13:07;25.90;;;23.10;;
11173;SDS011;5643;50.856;12.088;2023-03-01T09:15:35;24.83;;;22.23;;
11173;SDS011;5643;50.856;12.088;2023-03-01T09:18:04;24.87;;;22.17;;
11173;SDS011;5643;50.856;12.088;2023-03-01T09:20:32;24.93;;;22.33;;
11173;SDS011;5643;50.856;12.088;2023-03-01T09:22:59;23.63;;;21.17;;
11173;SDS011;5643;50.856;12.088;2023-03-01T09:25:27;24.27;;;21.87;;
11173;SDS011;5643;50.856;12.088;2023-03-01T09:27:55;25.70;;;22.90;;
11173;SDS011;5643;50.856;12.088;2023-03-01T09:30:22;24.07;;;21.47;;
11173;SDS011;5643;50.856;12.088;2023-03-01T09:32:49;23.57;;;21.17;;
11173;SDS011;5643;50.856;12.088;2023-03-01T09:35:19;24.73;;;22.00;;
11173;SDS011;5643;50.856;12.088;2023-03-01T09:37:51;23.43;;;21.03;;
11173;SDS011;5643;50.856;12.088;2023-03-01T09:40:21;21.53;;;19.13;;
11173;SDS011;5643;50.856;12.088;2023-03-01T09:42:58;22.67;;;20.27;;
11173;SDS011;5643;50.856;12.088;2023-03-01T09:45:27;22.93;;;20.53;;
11173;SDS011;5643;50.856;12.088;2023-03-01T09:47:56;23.10;;;20.63;;
11173;SDS011;5643;50.856;12.088;2023-03-01T09:50:26;22.17;;;19.87;;
11173;SDS011;5643;50.856;12.088;2023-03-01T09:52:58;23.07;;;20.67;;
11173;SDS011;5643;50.856;12.088;2023-03-01T09:55:28;23.67;;;21.23;;
11173;SDS011;5643;50.856;12.088;2023-03-01T09:57:58;22.30;;;20.00;;
11173;SDS011;5643;50.856;12.088;2023-03-01T10:00:30;21.87;;;19.63;;
11173;SDS011;5643;50.856;12.088;2023-03-01T10:03:02;21.60;;;19.30;;
11173;SDS011;5643;50.856;12.088;2023-03-01T10:05:39;21.67;;;19.37;;
11173;SDS011;5643;50.856;12.088;2023-03-01T10:08:18;22.57;;;20.17;;
11173;SDS011;5643;50.856;12.088;2023-03-01T10:10:47;22.60;;;20.30;;
11173;SDS011;5643;50.856;12.088;2023-03-01T10:13:15;23.33;;;20.83;;
11173;SDS011;5643;50.856;12.088;2023-03-01T10:15:48;23.10;;;20.60;;
11173;SDS011;5643;50.856;12.088;2023-03-01T10:18:21;22.47;;;20.17;;
11173;SDS011;5643;50.856;12.088;2023-03-01T10:20:52;23.00;;;20.60;;
11173;SDS011;5643;50.856;12.088;2023-03-01T10:23:21;23.70;;;21.20;;
11173;SDS011;5643;50.856;12.088;2023-03-01T10:25:55;23.77;;;21.37;;
11173;SDS011;5643;50.856;12.088;2023-03-01T10:28:25;23.77;;;21.37;;
11173;SDS011;5643;50.856;12.088;2023-03-01T10:30:54;23.53;;;21.13;;
11173;SDS011;5643;50.856;12.088;2023-03-01T10:33:24;23.77;;;21.37;;
11173;SDS011;5643;50.856;12.088;2023-03-01T10:35:55;23.87;;;21.50;;
11173;SDS011;5643;50.856;12.088;2023-03-01T10:38:22;25.03;;;22.33;;
11173;SDS011;5643;50.856;12.088;2023-03-01T10:40:50;24.20;;;21.70;;
11173;SDS011;5643;50.856;12.088;2023-03-01T10:43:19;23.67;;;21.27;;
11173;SDS011;5643;50.856;12.088;2023-03-01T10:45:46;24.30;;;21.90;;
11173;SDS011;5643;50.856;12.088;2023-03-01T10:48:14;21.77;;;19.67;;
11173;SDS011;5643;50.856;12.088;2023-03-01T10:50:46;22.27;;;20.03;;
11173;SDS011;5643;50.856;12.088;2023-03-01T10:53:21;22.43;;;20.23;;
11173;SDS011;5643;50.856;12.088;2023-03-01T10:55:59;22.37;;;20.17;;
11173;SDS011;5643;50.856;12.088;2023-03-01T10:58:28;22.07;;;19.97;;
11173;SDS011;5643;50.856;12.088;2023-03-01T11:00:57;21.43;;;19.33;;
11173;SDS011;5643;50.856;12.088;2023-03-01T11:03:26;21.63;;;19.53;;
11173;SDS011;5643;50.856;12.088;2023-03-01T11:06:05;21.33;;;19.23;;
11173;SDS011;5643;50.856;12.088;2023-03-01T11:08:37;21.40;;;19.30;;
11173;SDS011;5643;50.856;12.088;2023-03-01T11:11:16;21.87;;;19.57;;
11173;SDS011;5643;50.856;12.088;2023-03-01T11:13:51;21.00;;;19.00;;
11173;SDS011;5643;50.856;12.088;2023-03-01T11:16:23;20.70;;;18.70;;
11173;SDS011;5643;50.856;12.088;2023-03-01T11:18:58;20.80;;;18.73;;
11173;SDS011;5643;50.856;12.088;2023-03-01T11:21:27;21.03;;;18.93;;
11173;SDS011;5643;50.856;12.088;2023-03-01T11:23:56;20.27;;;18.17;;
11173;SDS011;5643;50.856;12.088;2023-03-01T11:26:34;20.17;;;18.17;;
11173;SDS011;5643;50.856;12.088;2023-03-01T11:29:03;20.70;;;18.63;;
11173;SDS011;5643;50.856;12.088;2023-03-01T11:34:19;19.63;;;17.73;;
11173;SDS011;5643;50.856;12.088;2023-03-01T11:39:39;20.23;;;18.23;;
11173;SDS011;5643;50.856;12.088;2023-03-01T12:09:52;19.43;;;17.43;;
11173;SDS011;5643;50.856;12.088;2023-03-01T12:12:26;18.87;;;17.07;;
11173;SDS011;5643;50.856;12.088;2023-03-01T12:15:01;18.70;;;16.77;;
11173;SDS011;5643;50.856;12.088;2023-03-01T12:17:39;18.60;;;16.73;;
11173;SDS011;5643;50.856;12.088;2023-03-01T12:20:14;19.93;;;18.03;;
11173;SDS011;5643;50.856;12.088;2023-03-01T12:22:46;18.40;;;16.70;;
11173;SDS011;5643;50.856;12.088;2023-03-01T12:25:23;19.67;;;17.77;;
11173;SDS011;5643;50.856;12.088;2023-03-01T12:27:59;20.20;;;17.90;;
11173;SDS011;5643;50.856;12.088;2023-03-01T12:30:38;18.77;;;16.97;;
11173;SDS011;5643;50.856;12.088;2023-03-01T12:33:11;17.70;;;16.03;;
11173;SDS011;5643;50.856;12.088;2023-03-01T12:35:47;18.03;;;16.33;;
11173;SDS011;5643;50.856;12.088;2023-03-01T12:38:20;17.40;;;15.70;;
11173;SDS011;5643;50.856;12.088;2023-03-01T12:43:46;17.40;;;15.70;;
11173;SDS011;5643;50.856;12.088;2023-03-01T12:46:19;16.27;;;14.67;;
11173;SDS011;5643;50.856;12.088;2023-03-01T12:48:50;17.80;;;16.00;;
11173;SDS011;5643;50.856;12.088;2023-03-01T12:51:24;17.60;;;15.90;;
11173;SDS011;5643;50.856;12.088;2023-03-01T12:53:53;17.70;;;16.00;;
11173;SDS011;5643;50.856;12.088;2023-03-01T12:56:23;17.57;;;15.87;;
11173;SDS011;5643;50.856;12.088;2023-03-01T12:58:55;17.83;;;16.23;;
11173;SDS011;5643;50.856;12.088;2023-03-01T13:01:28;17.33;;;15.73;;
11173;SDS011;5643;50.856;12.088;2023-03-01T13:04:14;18.10;;;16.30;;
11173;SDS011;5643;50.856;12.088;2023-03-01T13:06:44;17.00;;;15.50;;
11173;SDS011;5643;50.856;12.088;2023-03-01T13:09:18;17.37;;;15.67;;
11173;SDS011;5643;50.856;12.088;2023-03-01T13:11:47;16.93;;;15.23;;
11173;SDS011;5643;50.856;12.088;2023-03-01T13:17:07;17.13;;;15.53;;
11173;SDS011;5643;50.856;12.088;2023-03-01T13:19:58;15.57;;;14.07;;
11173;SDS011;5643;50.856;12.088;2023-03-01T13:22:28;16.20;;;14.70;;
11173;SDS011;5643;50.856;12.088;2023-03-01T13:27:39;15.80;;;14.30;;
11173;SDS011;5643;50.856;12.088;2023-03-01T13:32:57;16.37;;;14.67;;
11173;SDS011;5643;50.856;12.088;2023-03-01T13:35:54;15.97;;;14.40;;
11173;SDS011;5643;50.856;12.088;2023-03-01T13:38:38;15.53;;;14.03;;
11173;SDS011;5643;50.856;12.088;2023-03-01T13:41:05;13.83;;;12.53;;
11173;SDS011;5643;50.856;12.088;2023-03-01T13:43:35;16.47;;;14.80;;
11173;SDS011;5643;50.856;12.088;2023-03-01T13:46:10;15.43;;;13.93;;
11173;SDS011;5643;50.856;12.088;2023-03-01T13:48:40;15.13;;;13.67;;
11173;SDS011;5643;50.856;12.088;2023-03-01T13:51:10;15.23;;;13.63;;
11173;SDS011;5643;50.856;12.088;2023-03-01T13:53:40;15.43;;;14.00;;
11173;SDS011;5643;50.856;12.088;2023-03-01T13:56:09;15.77;;;14.27;;
11173;SDS011;5643;50.856;12.088;2023-03-01T13:58:46;15.90;;;14.30;;
11173;SDS011;5643;50.856;12.088;2023-03-01T14:01:25;16.83;;;15.17;;
11173;SDS011;5643;50.856;12.088;2023-03-01T14:03:55;16.03;;;14.43;;
11173;SDS011;5643;50.856;12.088;2023-03-01T14:06:23;15.70;;;14.10;;
11173;SDS011;5643;50.856;12.088;2023-03-01T14:08:52;15.17;;;13.73;;
11173;SDS011;5643;50.856;12.088;2023-03-01T14:11:28;16.20;;;14.60;;
11173;SDS011;5643;50.856;12.088;2023-03-01T14:14:01;14.80;;;13.40;;
11173;SDS011;5643;50.856;12.088;2023-03-01T14:16:33;15.17;;;13.77;;
11173;SDS011;5643;50.856;12.088;2023-03-01T14:19:08;17.13;;;15.47;;
11173;SDS011;5643;50.856;12.088;2023-03-01T14:21:39;17.37;;;15.67;;
11173;SDS011;5643;50.856;12.088;2023-03-01T14:24:14;17.60;;;15.80;;
11173;SDS011;5643;50.856;12.088;2023-03-01T14:26:42;16.03;;;14.53;;
11173;SDS011;5643;50.856;12.088;2023-03-01T14:29:23;15.83;;;14.23;;
11173;SDS011;5643;50.856;12.088;2023-03-01T14:31:50;15.10;;;13.63;;
11173;SDS011;5643;50.856;12.088;2023-03-01T14:34:20;18.20;;;16.40;;
11173;SDS011;5643;50.856;12.088;2023-03-01T14:36:48;15.43;;;14.03;;
11173;SDS011;5643;50.856;12.088;2023-03-01T14:39:19;17.37;;;15.57;;
11173;SDS011;5643;50.856;12.088;2023-03-01T14:41:47;16.20;;;14.63;;
11173;SDS011;5643;50.856;12.088;2023-03-01T14:44:15;14.13;;;12.73;;
11173;SDS011;5643;50.856;12.088;2023-03-01T14:46:44;14.33;;;12.97;;
11173;SDS011;5643;50.856;12.088;2023-03-01T14:49:13;15.93;;;14.43;;
11173;SDS011;5643;50.856;12.088;2023-03-01T14:51:45;17.87;;;16.20;;
11173;SDS011;5643;50.856;12.088;2023-03-01T14:54:19;16.63;;;15.00;;
11173;SDS011;5643;50.856;12.088;2023-03-01T14:56:47;17.27;;;15.57;;
11173;SDS011;5643;50.856;12.088;2023-03-01T14:59:14;15.73;;;14.13;;
11173;SDS011;5643;50.856;12.088;2023-03-01T15:01:42;16.70;;;15.10;;
11173;SDS011;5643;50.856;12.088;2023-03-01T15:04:11;16.63;;;15.03;;
11173;SDS011;5643;50.856;12.088;2023-03-01T15:06:39;16.03;;;14.53;;
11173;SDS011;5643;50.856;12.088;2023-03-01T15:09:11;17.13;;;15.53;;
11173;SDS011;5643;50.856;12.088;2023-03-01T15:11:41;17.37;;;15.57;;
11173;SDS011;5643;50.856;12.088;2023-03-01T15:16:54;16.30;;;14.80;;
11173;SDS011;5643;50.856;12.088;2023-03-01T15:19:21;15.87;;;14.37;;
11173;SDS011;5643;50.856;12.088;2023-03-01T15:21:51;16.73;;;15.03;;
11173;SDS011;5643;50.856;12.088;2023-03-01T15:24:22;18.23;;;16.37;;
11173;SDS011;5643;50.856;12.088;2023-03-01T15:26:50;16.97;;;15.37;;
11173;SDS011;5643;50.856;12.088;2023-03-01T15:29:21;17.43;;;15.73;;
11173;SDS011;5643;50.856;12.088;2023-03-01T15:31:55;16.73;;;15.13;;
11173;SDS011;5643;50.856;12.088;2023-03-01T15:34:24;17.23;;;15.53;;
11173;SDS011;5643;50.856;12.088;2023-03-01T15:36:52;18.10;;;16.30;;
11173;SDS011;5643;50.856;12.088;2023-03-01T15:39:29;17.07;;;15.37;;
11173;SDS011;5643;50.856;12.088;2023-03-01T15:41:58;15.63;;;14.03;;
11173;SDS011;5643;50.856;12.088;2023-03-01T15:44:27;17.53;;;15.83;;
11173;SDS011;5643;50.856;12.088;2023-03-01T15:46:54;16.77;;;15.13;;
11173;SDS011;5643;50.856;12.088;2023-03-01T15:49:25;17.33;;;15.63;;
11173;SDS011;5643;50.856;12.088;2023-03-01T15:51:54;16.43;;;14.83;;
11173;SDS011;5643;50.856;12.088;2023-03-01T15:54:22;15.97;;;14.37;;
11173;SDS011;5643;50.856;12.088;2023-03-01T15:56:51;17.93;;;16.03;;
11173;SDS011;5643;50.856;12.088;2023-03-01T15:59:19;17.27;;;15.53;;
11173;SDS011;5643;50.856;12.088;2023-03-01T16:01:47;18.37;;;16.50;;
11173;SDS011;5643;50.856;12.088;2023-03-01T16:04:16;16.63;;;14.93;;
11173;SDS011;5643;50.856;12.088;2023-03-01T16:06:46;17.27;;;15.57;;
11173;SDS011;5643;50.856;12.088;2023-03-01T16:09:20;16.83;;;15.20;;
11173;SDS011;5643;50.856;12.088;2023-03-01T16:11:49;17.67;;;15.87;;
11173;SDS011;5643;50.856;12.088;2023-03-01T16:14:17;14.57;;;13.17;;
11173;SDS011;5643;50.856;12.088;2023-03-01T16:16:45;13.50;;;12.10;;
11173;SDS011;5643;50.856;12.088;2023-03-01T16:19:13;13.37;;;12.07;;
11173;SDS011;5643;50.856;12.088;2023-03-01T16:21:41;11.80;;;10.67;;
11173;SDS011;5643;50.856;12.088;2023-03-01T16:24:09;14.77;;;13.27;;
11173;SDS011;5643;50.856;12.088;2023-03-01T16:26:37;15.10;;;13.60;;
11173;SDS011;5643;50.856;12.088;2023-03-01T16:29:04;14.27;;;12.87;;
11173;SDS011;5643;50.856;12.088;2023-03-01T16:31:32;14.13;;;12.77;;
11173;SDS011;5643;50.856;12.088;2023-03-01T16:34:00;15.73;;;14.20;;
11173;SDS011;5643;50.856;12.088;2023-03-01T16:36:27;14.37;;;12.97;;
11173;SDS011;5643;50.856;12.088;2023-03-01T16:39:02;11.80;;;10.70;;
11173;SDS011;5643;50.856;12.088;2023-03-01T16:41:30;11.60;;;10.40;;
11173;SDS011;5643;50.856;12.088;2023-03-01T16:43:57;12.50;;;11.27;;
11173;SDS011;5643;50.856;12.088;2023-03-01T16:46:26;12.80;;;11.60;;
11173;SDS011;5643;50.856;12.088;2023-03-01T16:48:56;12.70;;;11.50;;
11173;SDS011;5643;50.856;12.088;2023-03-01T16:51:24;11.80;;;10.63;;
11173;SDS011;5643;50.856;12.088;2023-03-01T16:53:51;13.30;;;11.93;;
11173;SDS011;5643;50.856;12.088;2023-03-01T16:56:19;14.60;;;13.10;;
11173;SDS011;5643;50.856;12.088;2023-03-01T16:58:46;14.60;;;13.10;;
11173;SDS011;5643;50.856;12.088;2023-03-01T17:01:14;12.80;;;11.60;;
11173;SDS011;5643;50.856;12.088;2023-03-01T17:03:41;13.20;;;11.90;;
11173;SDS011;5643;50.856;12.088;2023-03-01T17:06:10;12.13;;;10.90;;
11173;SDS011;5643;50.856;12.088;2023-03-01T17:08:38;12.20;;;10.90;;
11173;SDS011;5643;50.856;12.088;2023-03-01T17:11:06;11.17;;;9.97;;
11173;SDS011;5643;50.856;12.088;2023-03-01T17:13:34;10.47;;;9.47;;
11173;SDS011;5643;50.856;12.088;2023-03-01T17:16:02;10.60;;;8.77;;
11173;SDS011;5643;50.856;12.088;2023-03-01T17:18:30;9.10;;;8.20;;
11173;SDS011;5643;50.856;12.088;2023-03-01T17:20:57;9.00;;;8.10;;
11173;SDS011;5643;50.856;12.088;2023-03-01T17:23:26;9.47;;;8.53;;
11173;SDS011;5643;50.856;12.088;2023-03-01T17:26:06;8.77;;;7.87;;
11173;SDS011;5643;50.856;12.088;2023-03-01T17:28:34;9.17;;;8.27;;
11173;SDS011;5643;50.856;12.088;2023-03-01T17:31:02;8.83;;;7.93;;
11173;SDS011;5643;50.856;12.088;2023-03-01T17:33:30;8.27;;;7.47;;
11173;SDS011;5643;50.856;12.088;2023-03-01T17:35:57;8.60;;;7.80;;
11173;SDS011;5643;50.856;12.088;2023-03-01T17:38:26;8.10;;;7.30;;
11173;SDS011;5643;50.856;12.088;2023-03-01T17:40:53;8.30;;;7.40;;
11173;SDS011;5643;50.856;12.088;2023-03-01T17:43:21;8.90;;;8.00;;
11173;SDS011;5643;50.856;12.088;2023-03-01T17:45:48;8.70;;;7.90;;
11173;SDS011;5643;50.856;12.088;2023-03-01T17:48:18;9.27;;;8.37;;
11173;SDS011;5643;50.856;12.088;2023-03-01T17:50:46;10.73;;;9.63;;
11173;SDS011;5643;50.856;12.088;2023-03-01T17:53:14;11.00;;;9.77;;
11173;SDS011;5643;50.856;12.088;2023-03-01T17:55:43;10.80;;;9.70;;
11173;SDS011;5643;50.856;12.088;2023-03-01T17:58:11;10.57;;;9.47;;
11173;SDS011;5643;50.856;12.088;2023-03-01T18:00:39;11.37;;;9.97;;
11173;SDS011;5643;50.856;12.088;2023-03-01T18:03:06;9.90;;;8.90;;
11173;SDS011;5643;50.856;12.088;2023-03-01T18:05:34;9.83;;;8.83;;
11173;SDS011;5643;50.856;12.088;2023-03-01T18:08:02;9.47;;;8.57;;
11173;SDS011;5643;50.856;12.088;2023-03-01T18:10:30;9.90;;;8.90;;
11173;SDS011;5643;50.856;12.088;2023-03-01T18:12:59;9.53;;;8.63;;
11173;SDS011;5643;50.856;12.088;2023-03-01T18:15:26;9.97;;;8.97;;
11173;SDS011;5643;50.856;12.088;2023-03-01T18:17:54;10.17;;;9.17;;
11173;SDS011;5643;50.856;12.088;2023-03-01T18:20:21;10.27;;;9.20;;
11173;SDS011;5643;50.856;12.088;2023-03-01T18:22:49;11.03;;;9.93;;
11173;SDS011;5643;50.856;12.088;2023-03-01T18:25:17;10.57;;;9.50;;
11173;SDS011;5643;50.856;12.088;2023-03-01T18:27:44;11.33;;;10.07;;
11173;SDS011;5643;50.856;12.088;2023-03-01T18:30:13;12.07;;;10.77;;
11173;SDS011;5643;50.856;12.088;2023-03-01T18:32:41;12.97;;;11.57;;
11173;SDS011;5643;50.856;12.088;2023-03-01T18:35:10;12.93;;;11.53;;
11173;SDS011;5643;50.856;12.088;2023-03-01T18:37:38;13.63;;;12.13;;
11173;SDS011;5643;50.856;12.088;2023-03-01T18:40:06;14.87;;;12.87;;
11173;SDS011;5643;50.856;12.088;2023-03-01T18:42:33;14.47;;;12.10;;
11173;SDS011;5643;50.856;12.088;2023-03-01T18:45:01;13.70;;;12.30;;
11173;SDS011;5643;50.856;12.088;2023-03-01T18:47:30;14.27;;;12.77;;
11173;SDS011;5643;50.856;12.088;2023-03-01T18:49:57;12.90;;;11.60;;
11173;SDS011;5643;50.856;12.088;2023-03-01T18:52:25;12.80;;;11.50;;
11173;SDS011;5643;50.856;12.088;2023-03-01T18:54:52;12.10;;;10.87;;
11173;SDS011;5643;50.856;12.088;2023-03-01T18:57:19;11.77;;;10.57;;
11173;SDS011;5643;50.856;12.088;2023-03-01T18:59:47;11.30;;;10.10;;
11173;SDS011;5643;50.856;12.088;2023-03-01T19:02:14;11.43;;;10.27;;
11173;SDS011;5643;50.856;12.088;2023-03-01T19:04:42;11.70;;;10.50;;
11173;SDS011;5643;50.856;12.088;2023-03-01T19:07:09;12.33;;;10.63;;
11173;SDS011;5643;50.856;12.088;2023-03-01T19:09:38;12.20;;;10.90;;
11173;SDS011;5643;50.856;12.088;2023-03-01T19:12:23;13.10;;;11.70;;
11173;SDS011;5643;50.856;12.088;2023-03-01T19:14:53;12.53;;;11.23;;
11173;SDS011;5643;50.856;12.088;2023-03-01T19:17:20;13.57;;;11.60;;
11173;SDS011;5643;50.856;12.088;2023-03-01T19:19:51;13.47;;;11.63;;
11173;SDS011;5643;50.856;12.088;2023-03-01T19:22:18;13.90;;;12.27;;
11173;SDS011;5643;50.856;12.088;2023-03-01T19:24:45;14.70;;;12.93;;
11173;SDS011;5643;50.856;12.088;2023-03-01T19:27:12;15.77;;;13.13;;
11173;SDS011;5643;50.856;12.088;2023-03-01T19:29:40;14.70;;;12.87;;
11173;SDS011;5643;50.856;12.088;2023-03-01T19:32:07;16.07;;;13.77;;
11173;SDS011;5643;50.856;12.088;2023-03-01T19:34:35;15.83;;;14.03;;
11173;SDS011;5643;50.856;12.088;2023-03-01T19:37:07;14.87;;;12.77;;
11173;SDS011;5643;50.856;12.088;2023-03-01T19:39:35;14.90;;;13.30;;
11173;SDS011;5643;50.856;12.088;2023-03-01T19:42:03;14.73;;;13.03;;
11173;SDS011;5643;50.856;12.088;2023-03-01T19:44:31;14.73;;;12.90;;
11173;SDS011;5643;50.856;12.088;2023-03-01T19:46:58;16.30;;;13.83;;
11173;SDS011;5643;50.856;12.088;2023-03-01T19:49:25;16.03;;;13.93;;
11173;SDS011;5643;50.856;12.088;2023-03-01T19:51:54;16.70;;;14.70;;
11173;SDS011;5643;50.856;12.088;2023-03-01T19:54:23;16.57;;;14.10;;
11173;SDS011;5643;50.856;12.088;2023-03-01T19:56:51;17.87;;;15.33;;
11173;SDS011;5643;50.856;12.088;2023-03-01T19:59:18;18.27;;;15.73;;
11173;SDS011;5643;50.856;12.088;2023-03-01T20:01:48;20.80;;;17.23;;
11173;SDS011;5643;50.856;12.088;2023-03-01T20:04:16;24.63;;;19.30;;
11173;SDS011;5643;50.856;12.088;2023-03-01T20:06:44;23.17;;;19.47;;
11173;SDS011;5643;50.856;12.088;2023-03-01T20:09:12;26.20;;;20.60;;
11173;SDS011;5643;50.856;12.088;2023-03-01T20:11:40;27.77;;;22.77;;
11173;SDS011;5643;50.856;12.088;2023-03-01T20:14:08;28.37;;;22.17;;
11173;SDS011;5643;50.856;12.088;2023-03-01T20:16:36;29.60;;;22.53;;
11173;SDS011;5643;50.856;12.088;2023-03-01T20:19:04;26.83;;;22.50;;
11173;SDS011;5643;50.856;12.088;2023-03-01T20:21:31;26.57;;;21.10;;
11173;SDS011;5643;50.856;12.088;2023-03-01T20:23:59;22.63;;;18.77;;
11173;SDS011;5643;50.856;12.088;2023-03-01T20:26:27;20.63;;;17.20;;